Time;durP1;ratioP1;P1;durP2;ratioP2;P2;SDS_P1;SDS_P2;PMS_P1;PMS_P2;Temp;Humidity;BMP_temperature;BMP_pressure;BME280_temperature;BME280_humidity;BME280_pressure;Samples;Min_cycle;Max_cycle;Signal;HPM_P1;HPM_P2
2022/10/12 12:48:58;;;;;;;10.02;2.75;;;;;;;22.08;23.51;101897.97;4854217;29;20049;-74
2022/10/12 12:51:36;;;;;;;10.25;2.60;;;;;;;21.31;24.22;101889.13;4858759;29;20054;-74
2022/10/12 12:54:19;;;;;;;11.48;2.55;;;;;;;18.43;28.41;101892.72;4849007;29;20065;-74
2022/10/12 12:57:46;;;;;;;12.02;2.60;;;;;;;18.00;29.76;101888.81;4866472;29;20109;-73
2022/10/12 13:00:36;;;;;;;10.07;2.40;;;;;;;16.93;31.45;101877.63;4863940;29;20061;-74
2022/10/12 13:03:35;;;;;;;11.93;2.20;;;;;;;16.22;32.44;101881.09;4877100;29;20055;-74
2022/10/12 13:07:03;;;;;;;10.38;2.35;;;;;;;15.80;33.51;101884.78;4835908;29;20048;-74
2022/10/12 13:09:32;;;;;;;11.55;3.65;;;;;;;16.13;33.28;101874.84;4824765;29;20045;-73
2022/10/12 13:12:32;;;;;;;15.40;3.10;;;;;;;15.37;33.88;101882.09;4841956;29;20060;-74
2022/10/12 13:15:26;;;;;;;11.88;2.35;;;;;;;15.03;35.15;101882.13;4857293;29;20057;-74
2022/10/12 13:18:30;;;;;;;11.95;2.55;;;;;;;15.14;34.76;101867.47;4857275;29;20060;-73
2022/10/12 13:21:25;;;;;;;14.00;2.42;;;;;;;13.95;36.94;101873.41;4861072;29;20482;-73
2022/10/12 13:24:02;;;;;;;7.53;2.15;;;;;;;14.56;36.20;101868.97;4875753;29;20049;-73
2022/10/12 13:26:31;;;;;;;21.23;8.20;;;;;;;14.44;36.40;101864.84;4867287;29;20053;-72
2022/10/12 13:29:00;;;;;;;13.07;2.45;;;;;;;14.48;36.65;101860.84;4875709;29;20457;-73
2022/10/12 13:31:36;;;;;;;14.77;2.63;;;;;;;14.70;36.34;101865.72;4876022;29;20049;-65
2022/10/12 13:34:11;;;;;;;12.43;2.40;;;;;;;15.23;34.89;101861.09;4876609;29;20072;-63
2022/10/12 13:37:00;;;;;;;11.50;2.03;;;;;;;14.92;35.68;101861.66;4876606;29;20041;-65
2022/10/12 13:39:28;;;;;;;13.13;1.77;;;;;;;15.11;35.45;101859.69;4876543;29;20061;-63
2022/10/12 13:41:59;;;;;;;11.82;2.35;;;;;;;14.89;36.00;101859.25;4871513;29;20073;-64
2022/10/12 13:44:29;;;;;;;13.55;2.17;;;;;;;15.02;36.05;101853.41;4877047;29;20053;-64
2022/10/12 13:47:00;;;;;;;12.50;2.30;;;;;;;14.29;36.77;101859.19;4866463;29;20053;-65
2022/10/12 13:49:32;;;;;;;13.63;2.22;;;;;;;14.12;37.27;101854.66;4857420;29;20116;-65
2022/10/12 13:52:00;;;;;;;12.35;2.40;;;;;;;14.72;36.69;101850.22;4859176;29;20053;-64
2022/10/12 13:54:37;;;;;;;10.80;2.63;;;;;;;14.12;37.37;101855.50;4857696;29;20101;-72
2022/10/12 13:57:18;;;;;;;10.90;2.22;;;;;;;14.70;36.63;101854.03;4875097;29;20412;-72
2022/10/12 13:59:48;;;;;;;12.70;2.30;;;;;;;14.74;36.38;101845.50;4876313;29;20041;-72
2022/10/12 14:02:27;;;;;;;10.63;2.00;;;;;;;14.58;37.10;101845.38;4876836;29;20405;-71
2022/10/12 14:04:55;;;;;;;12.75;2.78;;;;;;;14.39;36.98;101845.56;4876460;29;20064;-71
2022/10/12 14:07:32;;;;;;;15.68;2.45;;;;;;;14.63;36.64;101836.78;4853302;29;20434;-71
2022/10/12 14:10:17;;;;;;;8.90;2.28;;;;;;;14.32;37.21;101829.16;4876504;29;20390;-71
2022/10/12 14:12:45;;;;;;;11.88;2.20;;;;;;;14.32;37.47;101825.63;4878607;29;20056;-71
2022/10/12 14:15:13;;;;;;;17.63;2.60;;;;;;;13.53;38.62;101832.66;4880860;29;20386;-71
2022/10/12 14:17:43;;;;;;;11.38;2.15;;;;;;;13.89;37.80;101828.16;4881345;29;20069;-71
2022/10/12 14:20:27;;;;;;;14.05;2.70;;;;;;;13.86;37.81;101825.75;4879978;29;20071;-71
2022/10/12 14:22:55;;;;;;;9.15;3.10;;;;;;;14.28;37.89;101820.53;4877573;29;20064;-71
2022/10/12 14:25:25;;;;;;;13.07;2.42;;;;;;;14.20;37.46;101820.47;4880781;29;20442;-71
2022/10/12 14:27:55;;;;;;;9.60;2.20;;;;;;;14.33;37.36;101819.22;4879806;29;20049;-71
2022/10/12 14:30:23;;;;;;;12.70;2.40;;;;;;;13.98;37.66;101815.59;4880172;29;20053;-71
2022/10/12 14:32:51;;;;;;;11.52;2.00;;;;;;;14.32;37.17;101810.25;4880271;29;20049;-71
2022/10/12 14:35:28;;;;;;;13.77;2.40;;;;;;;14.36;37.10;101810.78;4880270;29;20048;-71
2022/10/12 14:37:55;;;;;;;8.35;2.33;;;;;;;14.09;37.26;101801.84;4877984;29;20053;-71
2022/10/12 14:40:39;;;;;;;16.75;2.78;;;;;;;14.22;37.30;101806.81;4867637;29;20412;-71
2022/10/12 14:43:22;;;;;;;10.68;2.88;;;;;;;14.27;37.48;101801.81;4879899;29;20049;-71
2022/10/12 14:45:52;;;;;;;10.02;2.00;;;;;;;14.20;37.00;101804.28;4879320;29;20045;-71
2022/10/12 14:48:22;;;;;;;10.07;2.38;;;;;;;14.11;37.36;101807.91;4879030;29;20064;-71
2022/10/12 14:50:49;;;;;;;9.73;2.00;;;;;;;14.03;37.36;101802.47;4879943;29;20053;-71
2022/10/12 14:53:15;;;;;;;21.40;2.90;;;;;;;14.23;37.23;101803.13;4879501;29;20052;-71
2022/10/12 14:55:43;;;;;;;10.57;2.25;;;;;;;14.08;37.58;101800.16;4879416;29;20049;-72
2022/10/12 14:58:14;;;;;;;9.70;2.38;;;;;;;13.96;38.05;101804.09;4878933;29;20057;-72
2022/10/12 15:00:41;;;;;;;10.60;1.98;;;;;;;13.97;37.66;101798.53;4855672;29;20065;-72
2022/10/12 15:03:08;;;;;;;11.32;2.65;;;;;;;13.85;37.75;101799.81;4878442;29;20060;-72
2022/10/12 15:05:34;;;;;;;20.27;3.00;;;;;;;14.01;37.57;101782.88;4878182;29;20057;-71
2022/10/12 15:08:06;;;;;;;14.95;2.40;;;;;;;13.89;38.27;101785.00;4878815;29;20052;-71
2022/10/12 15:10:33;;;;;;;11.38;2.30;;;;;;;13.73;38.28;101790.22;4878910;29;20044;-72
2022/10/12 15:13:00;;;;;;;13.85;2.42;;;;;;;13.55;38.65;101787.50;4855622;29;20115;-72
2022/10/12 15:15:33;;;;;;;11.38;2.67;;;;;;;13.50;38.21;101787.16;4879401;29;20060;-72
2022/10/12 15:18:00;;;;;;;9.82;2.85;;;;;;;13.77;38.04;101783.56;4875135;29;20056;-70
2022/10/12 15:20:29;;;;;;;8.60;2.38;;;;;;;13.70;38.70;101783.28;4860087;29;20121;-73
2022/10/12 15:22:57;;;;;;;9.45;2.40;;;;;;;13.51;38.54;101778.88;4859848;29;20422;-72
2022/10/12 15:25:40;;;;;;;14.18;2.58;;;;;;;13.65;38.51;101773.97;4860874;29;20049;-72
2022/10/12 15:28:06;;;;;;;9.27;2.25;;;;;;;13.13;38.96;101771.94;4852577;29;20057;-72
2022/10/12 15:30:33;;;;;;;11.85;2.40;;;;;;;13.43;38.71;101769.88;4860232;29;20045;-73
2022/10/12 15:33:12;;;;;;;12.73;2.17;;;;;;;13.59;38.19;101775.41;4834887;29;20049;-72
2022/10/12 15:35:39;;;;;;;15.20;2.38;;;;;;;13.55;38.45;101774.03;4860769;29;20406;-72
2022/10/12 15:38:08;;;;;;;12.77;2.40;;;;;;;13.40;38.76;101772.88;4859544;29;20443;-72
2022/10/12 15:40:36;;;;;;;15.23;2.83;;;;;;;13.10;39.37;101775.75;4859099;29;20056;-72
2022/10/12 15:43:03;;;;;;;12.02;2.80;;;;;;;13.30;38.97;101768.41;4858691;29;20058;-72
2022/10/12 15:45:35;;;;;;;15.35;2.90;;;;;;;13.39;38.76;101768.47;4860228;29;20477;-69
2022/10/12 15:48:04;;;;;;;13.68;3.60;;;;;;;13.15;39.47;101769.09;4858575;29;20164;-72
2022/10/12 15:50:57;;;;;;;15.65;3.72;;;;;;;13.02;39.77;101764.06;4860277;29;20060;-73
2022/10/12 15:53:25;;;;;;;17.63;2.90;;;;;;;13.39;39.19;101769.34;4845614;29;20535;-73
2022/10/12 15:55:53;;;;;;;13.38;4.13;;;;;;;13.48;38.99;101763.03;4866498;29;20421;-72
2022/10/12 15:58:20;;;;;;;14.77;3.05;;;;;;;13.49;39.19;101761.16;4878474;29;20059;-72
2022/10/12 16:00:47;;;;;;;10.95;2.47;;;;;;;13.10;39.90;101766.84;4878741;29;20053;-72
2022/10/12 16:03:18;;;;;;;15.35;3.33;;;;;;;13.29;39.84;101763.19;4877413;29;20052;-72
2022/10/12 16:05:51;;;;;;;20.98;3.40;;;;;;;13.30;40.08;101756.78;4868285;29;20053;-71
2022/10/12 16:08:17;;;;;;;14.43;2.72;;;;;;;13.14;40.16;101762.00;4876657;29;20056;-72
2022/10/12 16:10:45;;;;;;;14.90;3.10;;;;;;;13.08;40.15;101755.38;4877081;29;20141;-73
2022/10/12 16:13:12;;;;;;;18.13;3.03;;;;;;;13.08;40.07;101758.06;4878395;29;20053;-72
2022/10/12 16:15:40;;;;;;;6.95;2.03;;;;;;;13.12;40.19;101762.16;4877719;29;20512;-70
2022/10/12 16:18:07;;;;;;;14.32;2.58;;;;;;;13.08;40.38;101764.31;4868871;29;20056;-72
2022/10/12 16:20:36;;;;;;;14.30;3.22;;;;;;;12.94;40.64;101755.88;4877443;29;20056;-72
2022/10/12 16:23:05;;;;;;;17.88;2.95;;;;;;;12.81;40.96;101762.47;4877191;29;20053;-72
2022/10/12 16:25:33;;;;;;;18.75;3.78;;;;;;;12.88;41.18;101755.47;4877158;29;20049;-72
2022/10/12 16:28:00;;;;;;;16.17;4.05;;;;;;;12.98;40.91;101755.44;4877628;29;20055;-72
2022/10/12 16:30:26;;;;;;;15.10;3.30;;;;;;;12.93;41.22;101756.88;4854151;29;20403;-71
2022/10/12 16:32:53;;;;;;;14.65;3.30;;;;;;;12.86;41.75;101757.47;4876560;29;20063;-72
2022/10/12 16:35:20;;;;;;;13.30;3.42;;;;;;;12.73;42.00;101761.47;4877410;29;20056;-72
2022/10/12 16:37:46;;;;;;;14.82;3.60;;;;;;;12.70;42.05;101756.41;4877079;29;20389;-72
2022/10/12 16:40:14;;;;;;;13.57;3.85;;;;;;;12.74;42.20;101761.38;4877812;29;20044;-72
2022/10/12 16:42:41;;;;;;;16.98;3.97;;;;;;;12.53;42.63;101750.81;4868236;29;20060;-72
2022/10/12 16:45:07;;;;;;;16.00;3.85;;;;;;;12.48;42.98;101755.78;4877187;29;20052;-72
2022/10/12 16:47:36;;;;;;;13.85;4.45;;;;;;;12.52;43.16;101753.63;4877031;29;20045;-72
2022/10/12 16:50:08;;;;;;;15.43;4.18;;;;;;;12.49;43.28;101756.66;4876450;29;20417;-72
2022/10/12 16:52:35;;;;;;;17.15;4.50;;;;;;;12.48;43.59;101753.06;4866129;29;20117;-71
2022/10/12 16:55:01;;;;;;;20.75;4.20;;;;;;;12.48;43.56;101750.38;4877113;29;20056;-72
2022/10/12 16:57:28;;;;;;;16.25;4.03;;;;;;;12.37;43.85;101759.50;4853305;29;20045;-73
2022/10/12 16:59:55;;;;;;;23.83;5.03;;;;;;;12.47;43.80;101753.25;4876553;29;20513;-71
2022/10/12 17:02:21;;;;;;;32.88;5.25;;;;;;;12.44;44.24;101756.22;4877549;29;20049;-72
2022/10/12 17:04:48;;;;;;;21.13;4.85;;;;;;;12.43;44.26;101758.06;4876816;29;20045;-72
2022/10/12 17:07:15;;;;;;;18.92;4.68;;;;;;;12.39;44.25;101752.13;4876725;29;20056;-72
2022/10/12 17:09:41;;;;;;;20.33;4.63;;;;;;;12.32;44.79;101755.56;4876388;29;20053;-72
2022/10/12 17:12:08;;;;;;;21.00;4.80;;;;;;;12.24;44.91;101758.97;4877055;29;20049;-72
2022/10/12 17:14:34;;;;;;;14.35;4.82;;;;;;;12.24;44.73;101756.28;4877366;29;20045;-72
2022/10/12 17:17:01;;;;;;;14.73;4.78;;;;;;;12.20;45.13;101757.56;4877345;29;20060;-72
2022/10/12 17:19:31;;;;;;;16.83;4.10;;;;;;;12.20;44.85;101759.41;4876323;29;20048;-71
2022/10/12 17:21:59;;;;;;;13.15;4.43;;;;;;;12.11;45.17;101753.06;4859554;29;20133;-72
2022/10/12 17:24:28;;;;;;;19.65;5.22;;;;;;;12.11;45.53;101751.22;4858241;29;20052;-71
2022/10/12 17:26:56;;;;;;;18.23;5.28;;;;;;;12.11;45.30;101753.91;4857481;29;20064;-72
2022/10/12 17:29:24;;;;;;;20.85;5.35;;;;;;;11.99;45.76;101755.06;4858357;29;20053;-72
2022/10/12 17:31:52;;;;;;;23.05;5.68;;;;;;;11.78;46.10;101743.63;4857678;29;20056;-71
2022/10/12 17:34:28;;;;;;;12.65;4.63;;;;;;;11.93;45.80;101756.50;4858080;29;20053;-71
2022/10/12 17:36:56;;;;;;;19.95;5.53;;;;;;;11.84;45.98;101746.59;4857746;29;20053;-71
2022/10/12 17:39:24;;;;;;;19.08;5.57;;;;;;;11.75;46.36;101746.59;4858707;29;20045;-71
2022/10/12 17:41:51;;;;;;;20.42;6.20;;;;;;;11.67;46.60;101745.47;4857899;29;20441;-71
2022/10/12 17:44:19;;;;;;;26.60;5.15;;;;;;;11.70;46.79;101749.72;4858949;29;20068;-73
2022/10/12 17:46:46;;;;;;;15.98;5.38;;;;;;;11.73;46.52;101736.00;4858426;29;20049;-73
2022/10/12 17:49:15;;;;;;;21.73;6.22;;;;;;;11.61;46.99;101743.31;4845209;29;20049;-71
2022/10/12 17:51:49;;;;;;;24.63;5.93;;;;;;;11.53;47.29;101737.81;4863054;29;20089;-71
2022/10/12 17:54:20;;;;;;;23.95;6.63;;;;;;;11.51;47.21;101734.41;4880485;29;20423;-72
2022/10/12 17:56:46;;;;;;;26.33;6.97;;;;;;;11.55;47.44;101732.28;4880094;29;20049;-71
2022/10/12 17:59:17;;;;;;;22.90;5.03;;;;;;;11.43;47.58;101740.50;4871329;29;20053;-71
2022/10/12 18:01:44;;;;;;;27.15;5.50;;;;;;;11.50;47.65;101742.63;4869977;29;20051;-71
2022/10/12 18:04:11;;;;;;;25.83;6.10;;;;;;;11.49;47.50;101741.78;4870759;29;20052;-71
2022/10/12 18:06:38;;;;;;;22.30;5.30;;;;;;;11.46;47.65;101742.06;4881066;29;20045;-72
2022/10/12 18:09:07;;;;;;;22.23;6.13;;;;;;;11.42;47.92;101736.13;4880730;29;20053;-71
2022/10/12 18:11:35;;;;;;;29.50;6.50;;;;;;;11.40;48.17;101731.88;4879894;29;20049;-71
2022/10/12 18:14:02;;;;;;;14.50;5.10;;;;;;;11.40;48.05;101737.25;4880161;29;20053;-72
2022/10/12 18:16:31;;;;;;;15.35;5.45;;;;;;;11.40;48.04;101738.09;4879802;29;20056;-72
2022/10/12 18:19:00;;;;;;;24.65;6.25;;;;;;;11.35;48.07;101735.00;4878665;29;20060;-71
2022/10/12 18:21:28;;;;;;;27.52;6.50;;;;;;;11.18;48.63;101727.63;4875068;29;20120;-72
2022/10/12 18:23:55;;;;;;;22.52;6.03;;;;;;;11.25;48.28;101726.06;4878298;29;20061;-73
2022/10/12 18:26:22;;;;;;;22.70;5.60;;;;;;;11.11;48.74;101721.97;4878931;29;20045;-72
2022/10/12 18:28:49;;;;;;;21.80;5.32;;;;;;;11.08;48.43;101724.94;4855926;29;20053;-71
2022/10/12 18:31:23;;;;;;;18.80;5.35;;;;;;;11.23;48.52;101719.97;4879104;29;20053;-71
2022/10/12 18:33:50;;;;;;;21.27;5.22;;;;;;;11.23;48.85;101719.97;4879144;29;20409;-70
2022/10/12 18:36:18;;;;;;;13.68;5.38;;;;;;;11.22;48.56;101716.44;4879084;29;20060;-69
2022/10/12 18:38:45;;;;;;;18.27;5.82;;;;;;;11.12;48.78;101714.75;4877790;29;20053;-71
2022/10/12 18:41:15;;;;;;;20.13;5.32;;;;;;;11.08;49.36;101716.03;4879227;29;20426;-69
2022/10/12 18:43:42;;;;;;;22.23;7.53;;;;;;;10.98;49.03;101722.22;4878997;29;20418;-70
2022/10/12 18:46:11;;;;;;;23.52;6.40;;;;;;;11.03;49.08;101719.09;4878994;29;20049;-70
2022/10/12 18:48:39;;;;;;;20.65;5.47;;;;;;;11.09;48.94;101721.25;4879547;29;20044;-71
2022/10/12 18:51:08;;;;;;;17.33;5.70;;;;;;;11.04;49.26;101717.28;4879179;29;20112;-71
2022/10/12 18:53:35;;;;;;;25.48;6.03;;;;;;;11.02;49.11;101717.41;4878465;29;20045;-71
2022/10/12 18:56:02;;;;;;;19.35;5.72;;;;;;;10.95;49.31;101711.75;4869105;29;20060;-70
2022/10/12 18:58:30;;;;;;;23.50;6.22;;;;;;;10.99;49.27;101712.31;4878933;29;20083;-71
2022/10/12 19:00:57;;;;;;;28.15;6.43;;;;;;;10.97;49.15;101711.63;4878293;29;20060;-71
2022/10/12 19:03:24;;;;;;;27.77;6.40;;;;;;;10.86;49.54;101714.41;4879018;29;20060;-70
2022/10/12 19:05:51;;;;;;;23.98;6.68;;;;;;;10.87;49.68;101713.44;4878699;29;20422;-70
2022/10/12 19:08:17;;;;;;;21.83;6.38;;;;;;;10.89;49.68;101712.28;4878319;29;20045;-70
2022/10/12 19:10:44;;;;;;;23.40;6.40;;;;;;;10.81;49.77;101714.00;4877884;29;20454;-70
2022/10/12 19:13:10;;;;;;;18.60;6.47;;;;;;;10.72;49.91;101704.91;4851861;29;20671;-70
2022/10/12 19:15:37;;;;;;;22.13;6.72;;;;;;;10.63;50.28;101705.75;4861038;29;20068;-71
2022/10/12 19:18:04;;;;;;;26.33;7.07;;;;;;;10.65;50.08;101701.06;4859346;29;20081;-70
2022/10/12 19:20:31;;;;;;;22.02;6.60;;;;;;;10.49;50.46;101702.41;4860219;29;20049;-70
2022/10/12 19:22:58;;;;;;;24.42;6.72;;;;;;;10.55;50.42;101702.88;4860593;29;20058;-71
2022/10/12 19:25:24;;;;;;;22.70;7.30;;;;;;;10.52;50.06;101706.69;4860270;29;20054;-70
2022/10/12 19:27:51;;;;;;;19.15;5.93;;;;;;;10.60;50.42;101706.00;4859558;29;20046;-71
2022/10/12 19:30:17;;;;;;;18.15;6.55;;;;;;;10.41;50.70;101702.25;4860061;29;20494;-71
2022/10/12 19:32:45;;;;;;;23.70;6.32;;;;;;;10.47;50.52;101707.06;4860456;29;20506;-70
2022/10/12 19:35:12;;;;;;;18.60;6.22;;;;;;;10.47;50.61;101699.00;4859847;29;20418;-70
2022/10/12 19:37:38;;;;;;;23.20;7.25;;;;;;;10.21;51.04;101700.47;4860786;29;20045;-71
2022/10/12 19:40:05;;;;;;;32.83;8.52;;;;;;;10.42;50.56;101695.91;4859076;29;20053;-71
2022/10/12 19:42:33;;;;;;;16.50;7.20;;;;;;;10.34;50.77;101693.06;4859418;29;20053;-69
2022/10/12 19:45:01;;;;;;;24.85;8.35;;;;;;;10.27;51.04;101695.41;4860730;29;20064;-70
2022/10/12 19:47:28;;;;;;;25.75;7.05;;;;;;;10.35;50.78;101700.09;4841482;29;20521;-70
2022/10/12 19:49:54;;;;;;;19.38;6.35;;;;;;;10.32;50.98;101700.38;4860346;29;20529;-71
2022/10/12 19:52:21;;;;;;;17.15;6.30;;;;;;;10.35;50.98;101700.09;4859508;29;20054;-71
2022/10/12 19:54:47;;;;;;;16.85;6.20;;;;;;;10.23;51.25;101695.81;4859667;29;20045;-71
2022/10/12 19:57:14;;;;;;;18.08;6.32;;;;;;;10.27;51.34;101692.75;4869509;29;20420;-70
2022/10/12 19:59:40;;;;;;;19.85;6.50;;;;;;;10.29;51.24;101689.91;4876550;29;20053;-69
2022/10/12 20:02:09;;;;;;;31.92;7.25;;;;;;;10.11;51.55;101694.22;4878866;29;20056;-70
2022/10/12 20:04:35;;;;;;;21.55;7.30;;;;;;;10.14;51.33;101688.59;4878087;29;20060;-71
2022/10/12 20:07:02;;;;;;;24.75;6.57;;;;;;;10.10;51.44;101681.75;4877466;29;20049;-69
2022/10/12 20:09:29;;;;;;;19.75;6.32;;;;;;;10.12;51.39;101682.50;4877326;29;20489;-71
2022/10/12 20:11:56;;;;;;;22.40;6.05;;;;;;;10.11;51.57;101681.66;4876977;29;20053;-70
2022/10/12 20:14:22;;;;;;;24.35;6.88;;;;;;;10.10;51.42;101682.63;4876950;29;20493;-71
2022/10/12 20:16:49;;;;;;;23.98;6.13;;;;;;;10.03;51.70;101681.47;4877376;29;20049;-69
2022/10/12 20:19:15;;;;;;;17.15;5.75;;;;;;;9.94;51.89;101683.09;4877627;29;20075;-70
2022/10/12 20:21:42;;;;;;;20.40;6.15;;;;;;;9.92;51.91;101679.69;4877695;29;20053;-70
2022/10/12 20:24:08;;;;;;;19.88;5.68;;;;;;;9.97;51.93;101682.84;4869018;29;20425;-70
2022/10/12 20:26:35;;;;;;;21.60;5.80;;;;;;;9.89;52.02;101682.66;4876227;29;20053;-70
2022/10/12 20:29:01;;;;;;;20.60;6.15;;;;;;;9.94;51.88;101688.47;4877412;29;20552;-71
2022/10/12 20:31:28;;;;;;;21.13;6.03;;;;;;;9.95;51.52;101678.59;4876332;29;20048;-71
2022/10/12 20:33:56;;;;;;;20.33;6.10;;;;;;;9.92;52.00;101674.34;4860957;29;20061;-71
2022/10/12 20:36:28;;;;;;;18.33;5.90;;;;;;;9.86;52.08;101674.03;4876952;29;20053;-71
2022/10/12 20:38:58;;;;;;;27.23;6.43;;;;;;;9.74;52.47;101676.78;4876558;29;20048;-71
2022/10/12 20:41:26;;;;;;;19.90;5.32;;;;;;;9.78;52.33;101669.31;4877248;29;20055;-70
2022/10/12 20:43:57;;;;;;;18.95;6.32;;;;;;;9.77;52.48;101675.66;4877196;29;20061;-70
2022/10/12 20:46:24;;;;;;;21.63;5.55;;;;;;;9.69;52.75;101667.44;4877706;29;20056;-69
2022/10/12 20:48:55;;;;;;;15.10;5.13;;;;;;;9.72;52.63;101664.50;4877204;29;20045;-70
2022/10/12 20:51:30;;;;;;;18.70;5.88;;;;;;;9.68;52.63;101663.94;4876883;29;20074;-71
2022/10/12 20:53:59;;;;;;;19.80;5.30;;;;;;;9.64;52.55;101659.78;4876021;29;20060;-70
2022/10/12 20:56:31;;;;;;;15.73;5.60;;;;;;;9.62;52.93;101655.56;4878101;29;20049;-71
2022/10/12 20:58:58;;;;;;;23.35;5.75;;;;;;;9.59;52.90;101653.97;4877797;29;20052;-71
2022/10/12 21:01:25;;;;;;;17.58;6.13;;;;;;;9.57;52.79;101653.25;4877033;29;20053;-74
2022/10/12 21:03:52;;;;;;;25.45;6.22;;;;;;;9.57;52.87;101648.75;4876800;29;20056;-70
2022/10/12 21:06:20;;;;;;;30.48;5.90;;;;;;;9.50;53.24;101647.56;4878780;29;20056;-71
2022/10/12 21:08:51;;;;;;;19.55;5.75;;;;;;;9.33;53.61;101650.81;4878175;29;20056;-70
2022/10/12 21:11:18;;;;;;;16.63;5.60;;;;;;;9.47;53.37;101642.50;4876577;29;20045;-70
2022/10/12 21:13:45;;;;;;;19.60;5.15;;;;;;;9.48;53.61;101644.19;4877420;29;20100;-70
2022/10/12 21:16:13;;;;;;;24.92;5.82;;;;;;;9.30;53.78;101637.69;4875656;29;20053;-71
2022/10/12 21:18:40;;;;;;;21.33;5.82;;;;;;;9.32;54.10;101638.44;4877895;29;20045;-71
2022/10/12 21:21:18;;;;;;;25.60;5.65;;;;;;;9.35;53.93;101640.00;4877899;29;20048;-70
2022/10/12 21:23:54;;;;;;;17.98;5.72;;;;;;;9.39;53.77;101634.25;4876993;29;20045;-71
2022/10/12 21:26:22;;;;;;;21.38;5.85;;;;;;;9.35;54.10;101631.97;4877874;29;20059;-70
2022/10/12 21:28:49;;;;;;;23.13;6.65;;;;;;;9.13;54.62;101633.75;4877376;29;20120;-71
2022/10/12 21:31:17;;;;;;;19.27;5.60;;;;;;;9.05;54.71;101634.38;4877314;29;20382;-70
2022/10/12 21:33:43;;;;;;;17.55;5.55;;;;;;;9.28;53.98;101637.00;4876818;29;20071;-69
2022/10/12 21:36:10;;;;;;;20.42;6.00;;;;;;;9.31;53.85;101642.09;4877478;29;20056;-68
2022/10/12 21:38:38;;;;;;;18.50;6.28;;;;;;;9.15;54.43;101636.28;4854189;29;20051;-70
2022/10/12 21:41:06;;;;;;;16.83;5.30;;;;;;;9.28;53.91;101634.31;4876852;29;20045;-71
2022/10/12 21:43:34;;;;;;;13.02;5.55;;;;;;;9.30;53.95;101645.72;4876889;29;20056;-70
2022/10/12 21:46:05;;;;;;;18.77;6.20;;;;;;;9.22;54.39;101642.81;4860184;29;20064;-68
2022/10/12 21:48:33;;;;;;;19.70;6.60;;;;;;;9.19;54.32;101645.75;4877405;29;20517;-70
2022/10/12 21:51:00;;;;;;;21.63;5.72;;;;;;;9.18;54.53;101646.75;4875393;29;20056;-70
2022/10/12 21:53:27;;;;;;;13.25;5.20;;;;;;;9.14;54.68;101645.31;4876168;29;20052;-70
2022/10/12 21:55:54;;;;;;;23.08;6.05;;;;;;;9.04;54.93;101646.06;4875788;29;20052;-73
2022/10/12 21:58:20;;;;;;;19.23;5.78;;;;;;;8.96;55.09;101647.69;4867163;29;20053;-71
2022/10/12 22:00:47;;;;;;;21.45;6.35;;;;;;;9.01;55.05;101640.97;4874798;29;20049;-70
2022/10/12 22:03:13;;;;;;;24.83;6.07;;;;;;;8.95;55.28;101635.25;4877004;29;20549;-70
2022/10/12 22:05:41;;;;;;;18.17;5.95;;;;;;;8.82;55.67;101641.66;4877174;29;20524;-70
2022/10/12 22:08:09;;;;;;;24.52;7.25;;;;;;;8.78;55.77;101644.69;4876938;29;20072;-71
2022/10/12 22:10:37;;;;;;;19.88;5.70;;;;;;;8.79;55.83;101649.06;4877121;29;20048;-71
2022/10/12 22:13:07;;;;;;;25.40;6.30;;;;;;;8.67;55.98;101648.25;4876386;29;20125;-69
2022/10/12 22:15:34;;;;;;;20.20;6.10;;;;;;;8.73;55.82;101644.22;4876185;29;20049;-70
2022/10/12 22:18:00;;;;;;;15.23;6.30;;;;;;;8.72;55.85;101635.34;4851885;29;20053;-70
2022/10/12 22:20:27;;;;;;;18.80;5.82;;;;;;;8.77;55.89;101629.59;4875756;29;20060;-71
2022/10/12 22:22:53;;;;;;;19.98;6.47;;;;;;;8.67;56.28;101628.66;4876432;29;20064;-68
2022/10/12 22:25:20;;;;;;;17.98;5.43;;;;;;;8.66;56.22;101625.16;4870474;29;20060;-69
2022/10/12 22:27:46;;;;;;;16.60;6.45;;;;;;;8.71;55.96;101633.66;4876647;29;20101;-70
2022/10/12 22:30:13;;;;;;;21.33;6.10;;;;;;;8.61;56.25;101624.69;4876631;29;20049;-70
2022/10/12 22:32:39;;;;;;;26.17;6.45;;;;;;;8.59;56.46;101626.63;4876264;29;20049;-70
2022/10/12 22:35:06;;;;;;;22.48;6.18;;;;;;;8.46;56.77;101618.75;4879487;29;20052;-71
2022/10/12 22:37:32;;;;;;;17.52;6.53;;;;;;;8.44;56.87;101622.53;4869497;29;20049;-70
2022/10/12 22:39:59;;;;;;;17.95;6.80;;;;;;;8.47;56.91;101623.13;4878104;29;20060;-70
2022/10/12 22:42:25;;;;;;;22.80;6.90;;;;;;;8.57;56.69;101624.09;4878790;29;20048;-70
2022/10/12 22:44:52;;;;;;;20.42;7.00;;;;;;;8.54;56.71;101626.16;4878930;29;20049;-71
2022/10/12 22:47:18;;;;;;;21.27;5.78;;;;;;;8.53;56.70;101622.63;4879849;29;20060;-69
2022/10/12 22:49:45;;;;;;;25.40;6.68;;;;;;;8.45;57.11;101617.06;4878962;29;20053;-71
2022/10/12 22:52:11;;;;;;;20.00;6.47;;;;;;;8.50;57.03;101614.84;4879333;29;20052;-70
2022/10/12 22:54:38;;;;;;;21.73;6.68;;;;;;;8.49;56.82;101617.66;4880058;29;20417;-69
2022/10/12 22:57:04;;;;;;;19.10;6.25;;;;;;;8.52;56.77;101612.91;4878815;29;20048;-69
2022/10/12 22:59:30;;;;;;;22.52;6.40;;;;;;;8.49;57.09;101613.16;4853728;29;20057;-69
2022/10/12 23:01:57;;;;;;;18.85;6.10;;;;;;;8.45;56.91;101614.38;4878213;29;20064;-62
2022/10/12 23:04:23;;;;;;;21.65;5.72;;;;;;;8.42;57.18;101617.28;4880083;29;20053;-62
2022/10/12 23:06:50;;;;;;;20.60;6.18;;;;;;;8.36;56.92;101607.09;4879674;29;21472;-61
2022/10/12 23:09:16;;;;;;;16.15;6.43;;;;;;;8.32;57.08;101603.81;4879864;29;20060;-62
2022/10/12 23:11:43;;;;;;;23.67;5.88;;;;;;;8.31;57.42;101603.94;4879942;29;20050;-67
2022/10/12 23:14:10;;;;;;;16.80;5.90;;;;;;;8.31;57.15;101603.94;4879534;29;20417;-67
2022/10/12 23:16:36;;;;;;;25.55;7.13;;;;;;;8.27;57.62;101598.00;4879017;29;20433;-67
2022/10/12 23:19:04;;;;;;;22.15;6.95;;;;;;;8.26;57.60;101598.09;4868559;29;20064;-67
2022/10/12 23:21:32;;;;;;;19.77;6.53;;;;;;;8.23;57.60;101590.38;4878268;29;20061;-67
2022/10/12 23:23:59;;;;;;;22.33;7.03;;;;;;;8.19;57.54;101600.41;4878702;29;20053;-66
2022/10/12 23:26:28;;;;;;;25.15;6.50;;;;;;;8.19;57.60;101597.75;4879681;29;20053;-67
2022/10/12 23:28:54;;;;;;;21.17;6.57;;;;;;;8.14;57.97;101592.78;4878919;29;20558;-66
2022/10/12 23:31:24;;;;;;;20.75;6.05;;;;;;;8.16;57.88;101594.47;4878446;29;20060;-66
2022/10/12 23:33:58;;;;;;;21.35;7.38;;;;;;;8.07;58.08;101593.41;4878612;29;20064;-66
2022/10/12 23:36:25;;;;;;;23.75;5.80;;;;;;;8.07;58.00;101596.91;4878663;29;20049;-66
2022/10/12 23:38:52;;;;;;;14.15;5.82;;;;;;;8.07;57.71;101591.56;4879249;29;20075;-66
2022/10/12 23:41:18;;;;;;;26.40;6.03;;;;;;;7.99;58.08;101596.69;4878332;29;20051;-66
2022/10/12 23:43:45;;;;;;;16.80;5.57;;;;;;;7.94;58.56;101603.38;4877502;29;20052;-65
2022/10/12 23:46:12;;;;;;;27.33;5.85;;;;;;;8.01;58.30;101592.06;4876182;29;20045;-66
2022/10/12 23:48:38;;;;;;;22.73;6.72;;;;;;;7.89;58.48;101593.06;4879043;29;20416;-66
2022/10/12 23:51:06;;;;;;;19.40;6.10;;;;;;;7.87;58.40;101587.81;4879198;29;20064;-67
2022/10/12 23:53:33;;;;;;;18.08;6.15;;;;;;;7.87;58.55;101587.81;4877962;29;20049;-66
2022/10/12 23:55:59;;;;;;;16.75;5.80;;;;;;;7.89;58.54;101593.06;4878599;29;20060;-66
2022/10/12 23:58:26;;;;;;;19.33;6.05;;;;;;;7.86;58.73;101594.13;4879193;29;20048;-65
